Time;durP1;ratioP1;P1;durP2;ratioP2;P2;SDS_P1;SDS_P2;PMS_P1;PMS_P2;Temp;Humidity;BMP_temperature;BMP_pressure;BME280_temperature;BME280_humidity;BME280_pressure;Samples;Min_cycle;Max_cycle;Signal;HPM_P1;HPM_P2
2022/06/16 00:00:52;;;;;;;5.50;3.33;;;21.60;53.60;;;;;;7377713;19;20507;-40
2022/06/16 00:03:22;;;;;;;3.37;2.87;;;21.40;53.60;;;;;;7374125;19;20388;-40
2022/06/16 00:05:51;;;;;;;4.03;2.70;;;21.60;53.40;;;;;;7377917;19;20387;-40
2022/06/16 00:08:23;;;;;;;3.07;2.83;;;21.80;52.20;;;;;;7370808;19;20375;-40
2022/06/16 00:13:40;;;;;;;3.23;2.93;;;21.40;53.40;;;;;;7374223;19;20957;-40
2022/06/16 00:16:11;;;;;;;3.40;2.83;;;21.30;53.50;;;;;;7373616;19;20873;-40
2022/06/16 00:18:41;;;;;;;4.17;2.90;;;21.40;53.50;;;;;;7376365;19;20451;-43
2022/06/16 00:21:12;;;;;;;3.90;2.70;;;21.50;53.40;;;;;;7374867;19;20909;-42
2022/06/16 00:23:42;;;;;;;4.23;3.30;;;21.30;54.00;;;;;;7364539;19;20396;-43
2022/06/16 00:26:20;;;;;;;4.37;2.83;;;21.00;54.70;;;;;;7374503;19;20863;-42
2022/06/16 00:28:51;;;;;;;3.03;2.73;;;21.10;54.90;;;;;;7373109;19;20427;-42
2022/06/16 00:31:23;;;;;;;3.53;3.00;;;21.30;54.50;;;;;;7368354;19;20400;-43
2022/06/16 00:33:56;;;;;;;3.83;2.80;;;21.40;53.50;;;;;;7377721;19;20368;-43
2022/06/16 00:36:26;;;;;;;3.83;2.80;;;21.40;53.60;;;;;;7374423;19;20372;-44
2022/06/16 00:38:55;;;;;;;3.83;3.40;;;21.40;53.70;;;;;;7374967;19;20380;-42
2022/06/16 00:41:30;;;;;;;3.77;3.37;;;21.60;53.50;;;;;;7373783;19;20525;-43
2022/06/16 00:44:03;;;;;;;3.23;2.93;;;21.60;54.10;;;;;;7373291;19;20409;-43
2022/06/16 00:46:32;;;;;;;2.93;2.63;;;21.40;54.40;;;;;;7369667;19;20424;-43
2022/06/16 00:49:06;;;;;;;3.07;2.80;;;21.50;54.40;;;;;;7376638;19;20379;-43
2022/06/16 00:51:39;;;;;;;3.70;2.80;;;21.60;53.10;;;;;;7369127;19;20953;-43
2022/06/16 00:54:13;;;;;;;3.13;2.83;;;21.40;53.40;;;;;;7376474;19;20380;-43
2022/06/16 00:56:49;;;;;;;3.50;3.20;;;21.30;53.80;;;;;;7373666;19;20371;-43
2022/06/16 00:59:23;;;;;;;4.87;3.30;;;21.40;53.50;;;;;;7375310;19;20380;-43
2022/06/16 01:01:53;;;;;;;2.93;2.73;;;21.40;54.50;;;;;;7369487;19;20556;-44
2022/06/16 01:07:14;;;;;;;3.70;3.13;;;21.00;56.00;;;;;;7361128;19;20388;-44
2022/06/16 01:09:46;;;;;;;5.03;3.10;;;20.90;56.80;;;;;;7371434;19;20360;-42
2022/06/16 01:15:31;;;;;;;3.83;3.10;;;21.30;56.20;;;;;;7371556;19;20381;-42
2022/06/16 01:18:09;;;;;;;3.93;3.00;;;21.40;56.00;;;;;;7371557;19;20427;-43
2022/06/16 01:20:47;;;;;;;3.93;2.70;;;21.10;55.70;;;;;;7369226;19;20364;-43
2022/06/16 01:23:43;;;;;;;3.33;3.03;;;21.10;55.60;;;;;;7369326;19;20424;-43
2022/06/16 01:26:39;;;;;;;3.30;2.67;;;21.00;55.70;;;;;;7369335;19;20886;-44
2022/06/16 01:29:21;;;;;;;5.33;3.40;;;21.00;56.70;;;;;;7370461;19;20492;-43
2022/06/16 01:31:58;;;;;;;4.90;3.20;;;20.70;57.50;;;;;;7371995;19;20913;-44
2022/06/16 01:34:44;;;;;;;4.13;3.70;;;20.50;58.00;;;;;;7372089;19;20416;-43
2022/06/16 01:37:18;;;;;;;5.27;3.10;;;20.20;58.30;;;;;;7373217;19;20537;-42
2022/06/16 01:39:58;;;;;;;4.00;3.00;;;20.10;58.40;;;;;;7370920;19;20755;-43
2022/06/16 01:42:34;;;;;;;10.13;3.13;;;20.20;58.50;;;;;;7371447;19;20423;-43
2022/06/16 01:45:16;;;;;;;4.17;2.97;;;20.50;58.20;;;;;;7371777;19;20915;-44
2022/06/16 01:47:53;;;;;;;3.30;3.00;;;20.60;57.20;;;;;;7370146;19;20411;-43
2022/06/16 01:50:37;;;;;;;3.63;2.80;;;20.80;56.80;;;;;;7373244;19;20419;-41
2022/06/16 01:53:10;;;;;;;3.27;2.97;;;20.60;56.30;;;;;;7373951;19;20420;-40
2022/06/16 01:55:44;;;;;;;3.00;2.80;;;20.30;56.90;;;;;;7367769;19;20435;-41
2022/06/16 01:58:18;;;;;;;4.77;3.33;;;20.30;57.10;;;;;;7371276;19;20929;-41
2022/06/16 02:00:56;;;;;;;4.30;3.00;;;20.30;57.40;;;;;;7366954;19;20411;-40
2022/06/16 02:03:30;;;;;;;3.10;2.80;;;20.10;57.20;;;;;;7372247;19;20380;-41
2022/06/16 02:06:04;;;;;;;4.20;3.03;;;20.10;57.00;;;;;;7370227;19;20395;-40
2022/06/16 02:08:41;;;;;;;4.80;2.80;;;20.20;56.10;;;;;;7373160;19;20455;-40
2022/06/16 02:11:16;;;;;;;3.80;2.87;;;20.20;56.40;;;;;;7369976;19;20409;-41
2022/06/16 02:13:53;;;;;;;4.10;2.60;;;20.10;56.20;;;;;;7368575;19;20371;-41
2022/06/16 02:16:31;;;;;;;3.10;2.73;;;20.00;56.50;;;;;;7377808;19;20387;-40
2022/06/16 02:19:04;;;;;;;4.67;3.00;;;19.80;57.30;;;;;;7374579;19;20359;-41
2022/06/16 02:21:38;;;;;;;3.60;3.10;;;19.70;58.10;;;;;;7378981;19;21337;-43
2022/06/16 02:24:13;;;;;;;4.43;3.00;;;19.90;57.50;;;;;;7370207;19;20388;-43
2022/06/16 02:26:43;;;;;;;2.83;2.63;;;20.00;56.80;;;;;;7378425;19;20356;-43
2022/06/16 02:29:30;;;;;;;4.40;2.70;;;20.10;56.70;;;;;;7375451;19;20383;-43
2022/06/16 02:32:13;;;;;;;4.60;3.00;;;20.10;56.50;;;;;;7377139;19;21010;-43
2022/06/16 02:34:55;;;;;;;4.03;2.80;;;19.90;57.20;;;;;;7378799;19;20495;-43
2022/06/16 02:37:35;;;;;;;4.57;3.20;;;19.70;58.20;;;;;;7379564;19;20372;-43
2022/06/16 02:40:33;;;;;;;3.27;2.70;;;19.70;58.20;;;;;;7378107;19;20395;-43
2022/06/16 02:43:13;;;;;;;4.50;3.57;;;20.00;57.30;;;;;;7375616;19;20372;-43
2022/06/16 02:45:49;;;;;;;4.43;2.63;;;20.00;57.50;;;;;;7372500;19;20375;-43
2022/06/16 02:48:30;;;;;;;3.80;3.03;;;19.90;58.10;;;;;;7377172;19;20411;-43
2022/06/16 02:51:06;;;;;;;5.13;3.43;;;19.60;59.00;;;;;;7377041;19;20416;-40
2022/06/16 02:53:43;;;;;;;4.30;2.97;;;19.40;59.50;;;;;;7378798;19;20376;-40
2022/06/16 02:56:22;;;;;;;4.80;3.00;;;19.40;59.90;;;;;;7376910;19;20994;-40
2022/06/16 02:58:53;;;;;;;3.23;3.00;;;19.70;58.80;;;;;;7373985;19;20380;-40
2022/06/16 03:01:28;;;;;;;3.00;2.70;;;19.80;58.60;;;;;;7376686;19;20387;-41
2022/06/16 03:04:11;;;;;;;4.13;3.40;;;19.70;58.40;;;;;;7376367;19;20364;-40
2022/06/16 03:06:44;;;;;;;4.47;3.40;;;19.80;59.20;;;;;;7378353;19;20955;-40
2022/06/16 03:09:15;;;;;;;4.30;3.23;;;19.70;59.50;;;;;;7376993;19;20384;-41
2022/06/16 03:11:45;;;;;;;5.27;3.10;;;19.60;60.20;;;;;;7371952;19;20376;-40
2022/06/16 03:14:15;;;;;;;4.43;3.30;;;19.60;60.60;;;;;;7374833;19;21308;-41
2022/06/16 03:16:49;;;;;;;3.57;3.27;;;19.60;60.70;;;;;;7376571;19;20395;-41
2022/06/16 03:19:22;;;;;;;3.70;3.03;;;19.70;60.60;;;;;;7376592;19;20387;-40
2022/06/16 03:21:54;;;;;;;4.60;3.00;;;19.30;61.70;;;;;;7378313;19;21941;-43
2022/06/16 03:24:25;;;;;;;3.83;3.43;;;19.20;63.60;;;;;;7368800;19;20547;-43
2022/06/16 03:26:58;;;;;;;4.37;3.20;;;18.80;62.50;;;;;;7373297;19;20409;-43
2022/06/16 03:29:33;;;;;;;4.10;3.50;;;18.90;64.00;;;;;;7374475;19;20427;-44
2022/06/16 03:32:04;;;;;;;4.50;3.00;;;19.30;62.50;;;;;;7366117;19;20403;-43
2022/06/16 03:34:36;;;;;;;3.93;3.30;;;19.80;60.30;;;;;;7376028;19;20970;-43
2022/06/16 03:37:08;;;;;;;4.20;3.80;;;20.00;59.20;;;;;;7373236;19;20379;-43
2022/06/16 03:39:45;;;;;;;4.80;3.33;;;20.10;58.60;;;;;;7376291;19;20729;-43
2022/06/16 03:42:17;;;;;;;3.77;3.37;;;19.80;59.20;;;;;;7370962;19;20447;-43
2022/06/16 03:44:48;;;;;;;5.93;3.20;;;19.60;60.60;;;;;;7377290;19;20395;-43
2022/06/16 03:47:20;;;;;;;4.93;3.70;;;19.10;63.60;;;;;;7375882;19;20442;-43
2022/06/16 03:49:52;;;;;;;3.30;3.00;;;18.90;64.40;;;;;;7372817;19;20368;-41
2022/06/16 03:52:23;;;;;;;4.90;3.70;;;18.80;65.10;;;;;;7373495;19;20434;-41
2022/06/16 03:54:56;;;;;;;3.70;3.40;;;18.90;64.20;;;;;;7373694;19;20408;-41
2022/06/16 03:57:33;;;;;;;3.20;2.90;;;19.10;64.30;;;;;;7375696;19;20415;-41
2022/06/16 04:00:02;;;;;;;4.10;3.20;;;19.50;62.50;;;;;;7371311;19;21017;-41
2022/06/16 04:05:52;;;;;;;4.37;3.67;;;20.30;58.80;;;;;;7363439;19;20388;-41
2022/06/16 04:08:22;;;;;;;3.93;3.63;;;20.30;57.10;;;;;;7368051;19;20408;-41
2022/06/16 04:10:54;;;;;;;4.97;3.53;;;20.50;57.10;;;;;;7374360;19;20409;-41
2022/06/16 04:13:25;;;;;;;4.40;3.90;;;20.60;58.20;;;;;;7371453;19;20372;-41
2022/06/16 04:16:00;;;;;;;5.83;3.27;;;20.40;58.90;;;;;;7366456;19;21020;-41
2022/06/16 04:18:29;;;;;;;3.73;3.43;;;20.00;60.00;;;;;;7369694;19;20672;-40
2022/06/16 04:21:01;;;;;;;3.77;3.47;;;19.70;62.20;;;;;;7376343;19;20368;-40
2022/06/16 04:23:53;;;;;;;4.03;3.63;;;19.50;63.00;;;;;;7372870;19;20400;-41
2022/06/16 04:26:24;;;;;;;4.57;3.57;;;19.80;62.80;;;;;;7375262;19;20376;-41
2022/06/16 04:28:54;;;;;;;5.07;2.93;;;20.30;60.70;;;;;;7375562;19;20456;-41
2022/06/16 04:31:27;;;;;;;4.10;3.37;;;20.60;59.30;;;;;;7370262;19;20378;-40
2022/06/16 04:33:58;;;;;;;4.00;3.70;;;20.40;60.90;;;;;;7372014;19;20624;-41
2022/06/16 04:36:32;;;;;;;3.50;3.20;;;20.60;61.30;;;;;;7370411;19;20375;-41
2022/06/16 04:39:08;;;;;;;3.90;3.20;;;20.90;60.10;;;;;;7370515;19;20411;-41
2022/06/16 04:41:38;;;;;;;5.40;3.30;;;21.00;59.80;;;;;;7377086;19;20366;-41
2022/06/16 04:44:15;;;;;;;4.70;4.00;;;21.00;59.90;;;;;;7371148;19;20360;-41
2022/06/16 04:46:47;;;;;;;3.10;2.80;;;21.20;59.20;;;;;;7370453;19;20824;-41
2022/06/16 04:49:18;;;;;;;5.20;3.30;;;21.40;58.10;;;;;;7368154;19;20376;-41
2022/06/16 04:51:53;;;;;;;3.87;3.50;;;21.60;57.10;;;;;;7368039;19;20414;-41
2022/06/16 04:54:24;;;;;;;3.73;3.43;;;21.70;56.20;;;;;;7359292;19;20981;-41
2022/06/16 04:57:23;;;;;;;4.27;3.20;;;21.80;57.00;;;;;;7366915;19;20621;-41
2022/06/16 05:00:19;;;;;;;3.70;3.30;;;22.10;54.40;;;;;;7366129;19;20441;-44
2022/06/16 05:03:00;;;;;;;4.03;3.50;;;22.10;54.00;;;;;;7371608;19;20404;-44
2022/06/16 05:05:45;;;;;;;4.27;3.70;;;22.20;54.20;;;;;;7360077;19;20786;-43
2022/06/16 05:08:37;;;;;;;4.40;3.60;;;22.20;53.70;;;;;;7364515;19;20376;-43
2022/06/16 05:11:24;;;;;;;7.00;4.13;;;22.10;53.60;;;;;;7368383;19;20387;-44
2022/06/16 05:14:16;;;;;;;8.23;3.70;;;22.20;54.60;;;;;;7359526;19;20373;-44
2022/06/16 05:16:56;;;;;;;4.73;3.63;;;22.30;53.00;;;;;;7369981;19;20388;-43
2022/06/16 05:19:44;;;;;;;5.00;3.87;;;22.20;54.60;;;;;;7368362;19;20384;-43
2022/06/16 05:22:40;;;;;;;6.80;5.00;;;22.30;54.50;;;;;;7371987;19;20961;-44
2022/06/16 05:25:31;;;;;;;5.37;4.87;;;22.40;56.40;;;;;;7371807;19;20400;-43
2022/06/16 05:28:08;;;;;;;6.63;5.27;;;22.40;57.40;;;;;;7372080;19;20411;-44
2022/06/16 05:31:05;;;;;;;5.07;4.60;;;22.40;57.90;;;;;;7371022;19;20380;-43
2022/06/16 05:33:41;;;;;;;5.40;4.83;;;21.90;58.70;;;;;;7369160;19;20435;-43
2022/06/16 05:36:32;;;;;;;5.70;4.70;;;21.80;59.00;;;;;;7369748;19;20791;-43
2022/06/16 05:39:20;;;;;;;4.40;4.00;;;21.50;60.10;;;;;;7371106;19;20372;-43
2022/06/16 05:41:58;;;;;;;4.90;4.50;;;21.90;59.20;;;;;;7372075;19;20885;-44
2022/06/16 05:44:39;;;;;;;4.47;3.97;;;22.30;58.10;;;;;;7366379;19;20384;-43
2022/06/16 05:47:27;;;;;;;4.90;4.40;;;22.40;57.80;;;;;;7367859;19;21426;-44
2022/06/16 05:50:02;;;;;;;4.87;3.90;;;22.60;57.50;;;;;;7359980;19;20886;-43
2022/06/16 05:52:31;;;;;;;4.73;4.23;;;22.50;57.40;;;;;;7367439;19;20368;-44
2022/06/16 05:55:21;;;;;;;4.83;3.93;;;22.30;57.00;;;;;;7365979;19;20384;-44
2022/06/16 05:57:55;;;;;;;5.00;4.50;;;22.50;56.90;;;;;;7368748;19;20372;-43
2022/06/16 06:00:25;;;;;;;4.43;3.80;;;22.70;56.10;;;;;;7368211;19;20384;-41
2022/06/16 06:02:59;;;;;;;5.13;4.43;;;23.00;55.70;;;;;;7361973;19;20994;-41
2022/06/16 06:05:39;;;;;;;5.60;4.53;;;23.00;55.60;;;;;;7362570;19;20384;-41
2022/06/16 06:16:35;;;;;;;4.97;3.87;;;23.30;55.80;;;;;;7364171;19;20765;-41
2022/06/16 06:19:23;;;;;;;5.60;3.80;;;23.40;55.70;;;;;;7367258;19;20876;-41
2022/06/16 06:22:06;;;;;;;4.53;4.10;;;23.60;55.00;;;;;;7365158;19;21058;-41
2022/06/16 06:24:38;;;;;;;6.30;4.50;;;23.80;54.40;;;;;;7360209;19;20743;-41
2022/06/16 06:27:21;;;;;;;4.33;3.93;;;23.90;54.10;;;;;;7362456;19;20400;-41
2022/06/16 06:29:53;;;;;;;4.50;3.90;;;24.10;53.70;;;;;;7369182;19;21024;-42
2022/06/16 06:32:25;;;;;;;11.87;4.07;;;24.20;53.40;;;;;;7366362;19;21042;-42
2022/06/16 06:34:58;;;;;;;5.03;4.40;;;24.40;53.30;;;;;;7367172;19;20383;-41
2022/06/16 06:37:29;;;;;;;5.23;3.80;;;24.50;52.70;;;;;;7366337;19;20745;-41
2022/06/16 06:40:02;;;;;;;7.17;4.70;;;24.70;51.30;;;;;;7368046;19;20364;-41
2022/06/16 06:42:32;;;;;;;5.20;3.60;;;24.80;50.40;;;;;;7365489;19;20427;-42
2022/06/16 06:45:04;;;;;;;4.70;4.10;;;24.80;49.30;;;;;;7366674;19;21007;-41
2022/06/16 06:47:34;;;;;;;5.73;4.40;;;24.90;48.80;;;;;;7370040;19;20444;-42
2022/06/16 06:50:03;;;;;;;4.50;3.70;;;25.00;49.40;;;;;;7370634;19;20860;-41
2022/06/16 06:52:33;;;;;;;4.13;3.43;;;25.10;49.70;;;;;;7373107;19;20376;-40
2022/06/16 06:55:03;;;;;;;4.10;3.70;;;25.20;48.60;;;;;;7363867;19;20853;-41
2022/06/16 06:57:33;;;;;;;5.03;4.10;;;25.30;48.10;;;;;;7366428;19;20390;-41
2022/06/16 07:00:07;;;;;;;4.17;3.80;;;25.50;47.20;;;;;;7364326;19;20740;-44
2022/06/16 07:02:36;;;;;;;4.20;3.80;;;25.50;47.60;;;;;;7366411;19;20379;-44
2022/06/16 07:05:06;;;;;;;4.10;3.80;;;25.60;47.50;;;;;;7376411;19;20400;-44
2022/06/16 07:07:37;;;;;;;3.43;3.13;;;25.60;47.10;;;;;;7375902;19;20372;-44
2022/06/16 07:10:10;;;;;;;6.13;4.23;;;25.80;47.60;;;;;;7367753;19;20475;-44
2022/06/16 07:12:40;;;;;;;3.90;3.57;;;25.90;46.90;;;;;;7368959;19;20368;-45
2022/06/16 07:15:13;;;;;;;4.60;3.80;;;26.00;47.50;;;;;;7372464;19;21167;-44
2022/06/16 07:17:43;;;;;;;6.47;3.83;;;26.10;46.40;;;;;;7375600;19;20372;-44
2022/06/16 07:20:15;;;;;;;5.73;4.07;;;26.20;46.60;;;;;;7372462;19;20419;-44
2022/06/16 07:22:45;;;;;;;5.13;4.27;;;26.30;46.20;;;;;;7377544;19;20414;-44
2022/06/16 07:25:15;;;;;;;4.60;4.20;;;26.30;46.20;;;;;;7372281;19;20400;-44
2022/06/16 07:27:45;;;;;;;5.83;4.50;;;26.30;47.40;;;;;;7367529;19;20371;-45
2022/06/16 07:30:23;;;;;;;4.40;4.00;;;26.40;47.50;;;;;;7371561;19;20917;-42
2022/06/16 07:32:54;;;;;;;6.30;5.07;;;26.60;47.60;;;;;;7360381;19;20418;-42
2022/06/16 07:35:25;;;;;;;4.23;3.83;;;26.60;46.90;;;;;;7375567;19;20426;-45
2022/06/16 07:37:55;;;;;;;5.53;3.90;;;26.60;47.20;;;;;;7380405;19;20404;-42
2022/06/16 07:40:25;;;;;;;4.70;4.30;;;26.70;47.60;;;;;;7378539;19;20368;-42
2022/06/16 07:42:56;;;;;;;4.30;3.90;;;26.80;46.70;;;;;;7371771;19;20917;-42
2022/06/16 07:45:34;;;;;;;5.70;4.60;;;27.00;51.20;;;;;;7375193;19;20376;-42
2022/06/16 07:48:06;;;;;;;4.90;4.10;;;27.10;50.20;;;;;;7365881;19;20399;-42
2022/06/16 07:50:37;;;;;;;4.90;4.50;;;27.20;51.80;;;;;;7362800;19;20819;-42
2022/06/16 07:53:09;;;;;;;4.73;4.17;;;;;;;;;;7373056;19;20852;-42
2022/06/16 07:55:38;;;;;;;5.10;4.60;;;27.40;45.80;;;;;;7365991;19;20431;-43
2022/06/16 07:58:08;;;;;;;5.53;4.27;;;27.50;45.40;;;;;;7369818;19;20371;-42
2022/06/16 08:00:40;;;;;;;5.23;4.73;;;27.60;45.60;;;;;;7354463;19;20711;-42
2022/06/16 08:03:09;;;;;;;6.83;4.40;;;27.70;45.00;;;;;;7375959;19;21410;-42
2022/06/16 08:05:39;;;;;;;4.50;4.07;;;27.80;45.80;;;;;;7364669;19;20399;-42
2022/06/16 08:08:09;;;;;;;5.23;4.33;;;27.80;45.00;;;;;;7363613;19;21931;-42
2022/06/16 08:10:39;;;;;;;4.63;4.23;;;27.80;46.70;;;;;;7373653;19;20412;-42
2022/06/16 08:13:08;;;;;;;5.37;4.77;;;27.90;45.90;;;;;;7374446;19;20390;-42
2022/06/16 08:15:46;;;;;;;5.90;5.00;;;28.00;46.10;;;;;;7376778;19;20372;-42
2022/06/16 08:18:16;;;;;;;6.93;5.27;;;28.10;46.10;;;;;;7376106;19;20378;-42
2022/06/16 08:20:51;;;;;;;4.47;4.07;;;28.10;46.20;;;;;;7373816;19;20404;-41
2022/06/16 08:23:21;;;;;;;4.63;4.10;;;28.00;46.30;;;;;;7374833;19;20380;-42
2022/06/16 08:25:51;;;;;;;4.57;4.10;;;28.10;46.00;;;;;;7375773;19;20384;-42
2022/06/16 08:28:22;;;;;;;4.43;4.03;;;28.20;45.50;;;;;;7377237;19;20525;-42
2022/06/16 08:30:54;;;;;;;5.10;4.60;;;28.20;44.10;;;;;;7376357;19;20417;-42
2022/06/16 08:33:24;;;;;;;5.57;4.43;;;28.00;44.00;;;;;;7375918;19;20384;-40
2022/06/16 08:35:53;;;;;;;4.70;4.20;;;28.00;44.60;;;;;;7375341;19;20747;-42
2022/06/16 08:38:25;;;;;;;5.43;4.17;;;28.10;44.40;;;;;;7372218;19;21120;-41
2022/06/16 08:41:15;;;;;;;7.87;4.80;;;28.40;44.00;;;;;;7377917;19;20400;-42
2022/06/16 08:43:55;;;;;;;7.87;4.30;;;28.50;43.50;;;;;;7374847;19;20403;-40
2022/06/16 08:46:35;;;;;;;4.50;3.83;;;28.80;42.50;;;;;;7375570;19;20436;-42
2022/06/16 08:49:12;;;;;;;4.60;4.07;;;29.00;41.80;;;;;;7373427;19;20384;-42
2022/06/16 08:51:53;;;;;;;4.90;3.67;;;28.90;41.00;;;;;;7361882;19;20391;-42
2022/06/16 08:54:37;;;;;;;4.60;4.20;;;28.70;41.70;;;;;;7376737;19;20392;-42
2022/06/16 08:57:14;;;;;;;4.50;3.90;;;28.80;41.60;;;;;;7376663;19;20376;-42
2022/06/16 08:59:50;;;;;;;4.00;3.70;;;28.60;41.10;;;;;;7375773;19;20929;-44
2022/06/16 09:02:29;;;;;;;4.07;3.67;;;28.60;41.20;;;;;;7374197;19;20372;-42
2022/06/16 09:05:05;;;;;;;4.53;4.13;;;29.00;41.20;;;;;;7376694;19;20380;-42
2022/06/16 09:07:48;;;;;;;4.20;3.60;;;29.20;40.30;;;;;;7370119;19;20734;-42
2022/06/16 09:10:27;;;;;;;4.30;3.90;;;29.40;40.20;;;;;;7378702;19;20368;-42
2022/06/16 09:13:26;;;;;;;5.67;4.43;;;29.50;39.80;;;;;;7374679;19;20416;-42
2022/06/16 09:16:08;;;;;;;4.17;3.77;;;29.90;39.30;;;;;;7372916;19;20995;-42
2022/06/16 09:19:09;;;;;;;6.70;3.50;;;30.20;39.00;;;;;;7375806;19;20829;-42
2022/06/16 09:21:49;;;;;;;3.87;3.03;;;30.40;38.80;;;;;;7373161;19;20411;-42
2022/06/16 09:24:34;;;;;;;4.57;3.63;;;30.70;38.10;;;;;;7371186;19;20399;-42
2022/06/16 09:27:08;;;;;;;4.07;3.60;;;31.10;37.80;;;;;;7375628;19;20388;-42
2022/06/16 09:29:44;;;;;;;4.57;3.70;;;31.10;38.10;;;;;;7375603;19;20416;-42
2022/06/16 09:32:19;;;;;;;4.23;3.17;;;31.30;37.80;;;;;;7377455;19;20412;-42
2022/06/16 09:34:56;;;;;;;5.17;4.10;;;31.50;37.80;;;;;;7372330;19;20408;-42
2022/06/16 09:37:31;;;;;;;6.33;3.30;;;31.60;38.40;;;;;;7373292;19;20420;-42
2022/06/16 09:40:07;;;;;;;4.70;4.10;;;32.10;37.60;;;;;;7373959;19;20383;-45
2022/06/16 09:42:43;;;;;;;5.07;3.40;;;32.70;36.50;;;;;;7376008;19;20368;-45
2022/06/16 09:45:21;;;;;;;3.90;3.60;;;33.10;36.10;;;;;;7377067;19;20379;-46
2022/06/16 09:47:56;;;;;;;3.80;3.50;;;33.50;35.30;;;;;;7372671;19;20436;-45
2022/06/16 09:50:36;;;;;;;3.90;3.23;;;33.70;34.50;;;;;;7375033;19;20380;-46
2022/06/16 09:53:14;;;;;;;3.90;3.53;;;33.90;34.50;;;;;;7375674;19;20406;-44
2022/06/16 09:55:50;;;;;;;4.00;3.60;;;34.30;34.00;;;;;;7375019;19;20415;-46
2022/06/16 09:58:26;;;;;;;4.10;3.60;;;34.60;34.10;;;;;;7376847;19;20989;-47
2022/06/16 10:01:00;;;;;;;4.07;3.30;;;35.20;33.30;;;;;;7374326;19;20810;-45
2022/06/16 10:03:35;;;;;;;5.27;3.73;;;35.70;32.60;;;;;;7372525;19;20862;-45
2022/06/16 10:06:21;;;;;;;4.50;2.80;;;36.00;32.20;;;;;;7375764;19;20957;-48
2022/06/16 10:08:59;;;;;;;5.60;3.73;;;36.40;31.80;;;;;;7373628;19;20380;-44
2022/06/16 10:11:42;;;;;;;5.63;3.90;;;36.40;31.80;;;;;;7376697;19;20399;-42
2022/06/16 10:14:19;;;;;;;3.47;3.17;;;36.70;31.10;;;;;;7376207;19;20453;-42
2022/06/16 10:16:58;;;;;;;3.70;3.37;;;37.00;30.30;;;;;;7370983;19;20427;-42
2022/06/16 10:19:32;;;;;;;6.47;3.10;;;37.00;30.20;;;;;;7373893;19;20383;-42
2022/06/16 10:22:09;;;;;;;3.83;2.90;;;37.50;30.00;;;;;;7368598;19;20483;-42
2022/06/16 10:24:46;;;;;;;3.70;3.40;;;38.10;29.80;;;;;;7374909;19;20396;-43
2022/06/16 10:27:18;;;;;;;4.80;3.10;;;38.40;29.40;;;;;;7374349;19;20412;-43
2022/06/16 10:29:55;;;;;;;3.60;3.17;;;38.80;28.80;;;;;;7374798;19;20370;-43
2022/06/16 10:32:39;;;;;;;3.93;3.50;;;39.30;28.20;;;;;;7373703;19;20412;-43
2022/06/16 10:35:16;;;;;;;3.90;3.00;;;39.60;28.20;;;;;;7377065;19;20404;-43
2022/06/16 10:37:54;;;;;;;6.10;3.30;;;39.80;28.10;;;;;;7380228;19;20384;-43
2022/06/16 10:40:29;;;;;;;3.47;3.17;;;40.20;27.30;;;;;;7380380;19;21341;-46
2022/06/16 10:43:05;;;;;;;3.53;3.13;;;40.70;27.70;;;;;;7382079;19;20435;-46
2022/06/16 10:45:36;;;;;;;4.70;3.40;;;40.70;27.10;;;;;;7379122;19;21559;-45
2022/06/16 10:48:11;;;;;;;3.10;2.77;;;40.20;27.10;;;;;;7376385;19;20751;-45
2022/06/16 10:50:48;;;;;;;4.03;3.20;;;40.50;27.10;;;;;;7379786;19;20387;-45
2022/06/16 10:53:29;;;;;;;5.30;2.70;;;40.90;26.70;;;;;;7378685;19;20418;-46
2022/06/16 10:56:04;;;;;;;3.20;2.90;;;41.30;26.60;;;;;;7378862;19;20363;-45
2022/06/16 10:58:44;;;;;;;3.30;2.50;;;41.50;26.20;;;;;;7359911;19;20885;-46
2022/06/16 11:01:19;;;;;;;3.43;3.00;;;41.80;26.00;;;;;;7367781;19;21133;-46
2022/06/16 11:03:50;;;;;;;3.47;3.00;;;41.80;25.80;;;;;;7376799;19;20422;-45
2022/06/16 11:06:23;;;;;;;3.73;2.83;;;42.30;25.20;;;;;;7377389;19;20376;-49
2022/06/16 11:09:02;;;;;;;3.70;3.33;;;42.50;25.20;;;;;;7374653;19;20387;-45
2022/06/16 11:11:39;;;;;;;3.07;2.77;;;42.90;25.00;;;;;;7373100;19;20368;-43
2022/06/16 11:14:16;;;;;;;5.70;2.63;;;43.00;24.70;;;;;;7371220;19;20483;-43
2022/06/16 11:16:52;;;;;;;3.17;2.87;;;43.50;24.20;;;;;;7363363;19;20383;-43
2022/06/16 11:19:29;;;;;;;3.70;2.80;;;42.90;24.50;;;;;;7365226;19;20415;-43
2022/06/16 11:21:59;;;;;;;3.33;2.80;;;42.50;24.80;;;;;;7364896;19;20368;-42
2022/06/16 11:24:35;;;;;;;3.50;2.93;;;42.40;24.40;;;;;;7365984;19;20444;-43
2022/06/16 11:27:14;;;;;;;3.20;2.63;;;42.40;24.70;;;;;;7373358;19;20404;-43
2022/06/16 11:29:44;;;;;;;2.60;2.40;;;42.30;24.50;;;;;;7369628;19;20997;-44
2022/06/16 11:32:20;;;;;;;4.83;3.00;;;42.40;24.60;;;;;;7371600;19;21516;-43
2022/06/16 11:34:50;;;;;;;3.40;3.03;;;42.80;24.40;;;;;;7370166;19;20901;-42
2022/06/16 11:37:51;;;;;;;3.10;2.43;;;42.60;24.50;;;;;;7372619;19;20879;-42
2022/06/16 11:40:33;;;;;;;3.30;2.87;;;42.70;24.50;;;;;;7374675;19;21198;-45
2022/06/16 11:43:19;;;;;;;3.70;3.40;;;42.40;24.60;;;;;;7368717;19;20387;-45
2022/06/16 11:45:56;;;;;;;4.53;2.90;;;42.20;24.70;;;;;;7355543;19;20368;-45
2022/06/16 11:48:33;;;;;;;5.33;3.27;;;42.10;24.60;;;;;;7367496;19;20389;-46
2022/06/16 11:51:10;;;;;;;4.50;2.63;;;42.40;24.60;;;;;;7372819;19;20369;-45
2022/06/16 11:53:49;;;;;;;9.50;4.03;;;42.60;24.10;;;;;;7356595;19;21592;-45
2022/06/16 11:56:35;;;;;;;5.27;3.23;;;42.60;24.30;;;;;;7336812;19;20943;-45
2022/06/16 11:59:32;;;;;;;3.40;2.80;;;42.90;23.90;;;;;;7335922;19;20412;-45
2022/06/16 12:02:35;;;;;;;5.80;3.47;;;43.10;23.60;;;;;;7358616;19;21129;-45
2022/06/16 12:05:23;;;;;;;7.70;3.40;;;43.20;23.80;;;;;;7357688;19;20431;-45
2022/06/16 12:08:09;;;;;;;3.07;2.77;;;43.50;23.60;;;;;;7342450;19;20383;-45
2022/06/16 12:10:44;;;;;;;3.00;2.70;;;43.50;23.40;;;;;;7335759;19;20420;-43
2022/06/16 12:13:25;;;;;;;2.40;2.20;;;43.70;22.70;;;;;;7360900;19;20376;-43
2022/06/16 12:16:02;;;;;;;4.00;2.60;;;43.60;22.80;;;;;;7345382;19;21064;-43
2022/06/16 12:18:44;;;;;;;6.00;2.43;;;43.40;23.00;;;;;;7353016;19;20372;-42
2022/06/16 12:21:20;;;;;;;3.03;2.73;;;43.40;22.90;;;;;;7355393;19;20539;-43
2022/06/16 12:23:58;;;;;;;3.70;3.10;;;43.50;23.30;;;;;;7359669;19;20432;-43
2022/06/16 12:26:31;;;;;;;3.03;2.47;;;43.90;23.10;;;;;;7355732;19;20384;-42
2022/06/16 12:29:14;;;;;;;3.40;3.07;;;43.90;23.10;;;;;;7350370;19;21022;-45
2022/06/16 12:31:56;;;;;;;3.23;2.80;;;43.60;23.20;;;;;;7351826;19;20464;-44
2022/06/16 12:34:33;;;;;;;3.13;2.83;;;43.90;24.40;;;;;;7367720;19;20372;-44
2022/06/16 12:37:07;;;;;;;4.00;2.90;;;43.70;23.10;;;;;;7367199;19;20408;-45
2022/06/16 12:39:43;;;;;;;2.70;2.50;;;44.00;23.10;;;;;;7369638;19;20375;-45
2022/06/16 12:42:18;;;;;;;3.37;2.60;;;44.10;23.60;;;;;;7362123;19;20372;-45
2022/06/16 12:44:57;;;;;;;4.20;2.50;;;43.80;22.90;;;;;;7358355;19;20392;-45
2022/06/16 12:47:31;;;;;;;5.70;2.60;;;44.20;23.00;;;;;;7361671;19;20444;-44
2022/06/16 12:50:06;;;;;;;4.17;2.57;;;44.10;22.80;;;;;;7367349;19;20375;-43
2022/06/16 12:52:40;;;;;;;3.80;2.50;;;44.00;22.20;;;;;;7360399;19;20750;-44
2022/06/16 12:55:17;;;;;;;6.10;2.93;;;43.90;22.20;;;;;;7357994;19;20379;-45
2022/06/16 12:57:53;;;;;;;3.50;2.30;;;44.10;22.50;;;;;;7341659;19;20376;-45
2022/06/16 13:00:30;;;;;;;3.67;3.00;;;43.50;22.30;;;;;;7368072;19;21273;-45
2022/06/16 13:03:07;;;;;;;3.40;2.80;;;43.70;22.50;;;;;;7363088;19;20410;-44
2022/06/16 13:05:38;;;;;;;4.70;2.70;;;44.00;22.30;;;;;;7361616;19;20771;-45
2022/06/16 13:08:09;;;;;;;3.30;2.63;;;44.00;22.50;;;;;;7349448;19;20413;-44
2022/06/16 13:10:41;;;;;;;4.00;2.97;;;43.40;21.80;;;;;;7373568;19;20408;-41
2022/06/16 13:13:11;;;;;;;3.10;2.37;;;43.10;22.10;;;;;;7366339;19;20408;-42
2022/06/16 13:15:47;;;;;;;2.17;1.97;;;42.80;22.60;;;;;;7368624;19;20393;-41
2022/06/16 13:18:19;;;;;;;2.63;2.40;;;42.40;21.30;;;;;;7343512;19;20458;-42
2022/06/16 13:20:56;;;;;;;5.17;2.60;;;42.00;22.40;;;;;;7364596;19;20394;-42
2022/06/16 13:23:34;;;;;;;3.60;2.50;;;41.80;22.80;;;;;;7368413;19;21145;-42
2022/06/16 13:26:23;;;;;;;3.50;2.70;;;41.60;22.30;;;;;;7373533;19;20379;-42
2022/06/16 13:29:15;;;;;;;3.40;2.43;;;41.30;22.80;;;;;;7370269;19;20456;-41
2022/06/16 13:32:03;;;;;;;2.90;2.47;;;41.30;23.00;;;;;;7371561;19;20449;-42
2022/06/16 13:34:53;;;;;;;3.10;2.80;;;41.10;23.60;;;;;;7370051;19;20413;-42
2022/06/16 13:37:38;;;;;;;2.60;2.40;;;40.50;23.70;;;;;;7371943;19;20400;-42
2022/06/16 13:40:25;;;;;;;3.70;2.53;;;40.30;23.40;;;;;;7370381;19;20413;-43
2022/06/16 13:43:08;;;;;;;3.40;2.60;;;39.80;24.00;;;;;;7372007;19;20372;-42
2022/06/16 13:45:55;;;;;;;3.70;2.60;;;39.50;24.40;;;;;;7368171;19;20390;-42
2022/06/16 13:48:45;;;;;;;2.83;2.40;;;39.10;24.20;;;;;;7357556;19;20398;-42
2022/06/16 13:51:51;;;;;;;3.77;3.23;;;38.30;24.70;;;;;;7352085;19;20380;-42
2022/06/16 13:54:32;;;;;;;3.33;2.50;;;38.00;24.80;;;;;;7372625;19;20411;-42
2022/06/16 13:57:20;;;;;;;3.47;2.77;;;37.40;25.30;;;;;;7371110;19;20713;-43